Time;durP1;ratioP1;P1;durP2;ratioP2;P2;SDS_P1;SDS_P2;PMS_P1;PMS_P2;Temp;Humidity;BMP_temperature;BMP_pressure;BME280_temperature;BME280_humidity;BME280_pressure;Samples;Min_cycle;Max_cycle;Signal;HPM_P1;HPM_P2
2023/02/15 00:00:55;;;;;;;37.40;21.10;;;;;;;2.90;83.46;101581.55;217718;1256;140274;-68
2023/02/15 00:06:05;;;;;;;31.10;18.80;;;;;;;2.89;83.74;101578.64;217636;1260;139547;-69
2023/02/15 00:11:16;;;;;;;52.30;27.70;;;;;;;2.88;83.73;101577.86;217564;1260;139674;-67
2023/02/15 00:16:21;;;;;;;71.10;31.10;;;;;;;2.85;83.79;101576.95;218211;1260;140424;-67
2023/02/15 00:21:25;;;;;;;58.00;31.40;;;;;;;2.84;83.49;101563.19;217734;1260;140831;-68
2023/02/15 00:26:29;;;;;;;46.50;27.60;;;;;;;2.81;83.61;101564.30;217631;1257;139718;-66
2023/02/15 00:31:34;;;;;;;43.10;24.50;;;;;;;2.78;83.57;101561.45;217664;1257;140843;-67
2023/02/15 00:36:39;;;;;;;42.00;27.40;;;;;;;2.67;83.62;101554.15;217589;1257;140243;-68
2023/02/15 00:41:45;;;;;;;46.70;26.30;;;;;;;2.64;83.74;101555.84;217490;1260;139410;-66
2023/02/15 00:46:51;;;;;;;44.80;26.20;;;;;;;2.67;83.71;101549.94;217926;1260;139945;-67
2023/02/15 00:51:56;;;;;;;44.60;27.00;;;;;;;2.73;83.91;101552.63;218464;1260;141050;-68
2023/02/15 00:57:01;;;;;;;35.40;22.90;;;;;;;2.72;83.77;101549.73;217687;1260;141514;-68
2023/02/15 01:02:06;;;;;;;29.80;19.60;;;;;;;2.71;83.92;101545.03;217774;1260;140224;-67
2023/02/15 01:07:10;;;;;;;41.00;23.00;;;;;;;2.73;83.65;101542.80;217722;1260;140702;-66
2023/02/15 01:12:15;;;;;;;37.50;21.20;;;;;;;2.75;84.10;101542.95;217589;1258;140058;-68
2023/02/15 01:17:21;;;;;;;37.70;23.10;;;;;;;2.75;84.03;101540.35;218487;1258;139736;-66
2023/02/15 01:22:26;;;;;;;39.20;23.20;;;;;;;2.74;83.98;101536.75;219190;1256;139618;-68
2023/02/15 01:27:31;;;;;;;32.60;18.90;;;;;;;2.76;83.70;101529.52;220637;1259;140769;-68
2023/02/15 01:32:36;;;;;;;27.70;17.90;;;;;;;2.83;83.91;101520.91;220487;1259;142554;-69
2023/02/15 01:37:40;;;;;;;29.70;18.50;;;;;;;2.84;83.87;101514.17;219628;1257;139764;-69
2023/02/15 01:42:45;;;;;;;31.80;20.00;;;;;;;2.79;83.89;101511.46;219222;1257;139581;-67
2023/02/15 01:48:03;;;;;;;33.70;16.70;;;;;;;2.78;83.89;101503.61;217730;1260;139732;-68
2023/02/15 01:53:16;;;;;;;28.10;17.40;;;;;;;2.82;83.66;101497.85;218873;1256;140369;-68
2023/02/15 01:58:25;;;;;;;29.10;17.70;;;;;;;2.72;83.68;101503.02;217922;1260;139760;-66
2023/02/15 02:04:00;;;;;;;33.90;19.30;;;;;;;2.71;83.91;101494.51;217846;1257;139559;-68
2023/02/15 02:09:05;;;;;;;35.50;20.30;;;;;;;2.70;84.04;101485.95;217923;1260;141539;-68
2023/02/15 02:14:11;;;;;;;32.70;20.30;;;;;;;2.63;83.55;101482.60;217710;1258;140221;-68
2023/02/15 02:19:43;;;;;;;35.30;22.30;;;;;;;2.64;84.15;101474.63;217864;1260;139434;-68
2023/02/15 02:25:18;;;;;;;40.20;25.10;;;;;;;2.65;84.07;101469.02;217697;1260;139085;-68
2023/02/15 02:30:47;;;;;;;38.80;23.60;;;;;;;2.64;84.16;101466.68;217484;1258;138945;-67
2023/02/15 02:36:18;;;;;;;41.30;23.00;;;;;;;2.64;84.11;101469.73;218353;1260;140108;-66
2023/02/15 02:41:29;;;;;;;34.60;20.60;;;;;;;2.66;84.06;101467.20;217602;1260;140783;-68
2023/02/15 02:46:46;;;;;;;40.60;23.60;;;;;;;2.65;84.58;101464.16;218253;1256;139674;-67
2023/02/15 02:51:59;;;;;;;30.20;19.70;;;;;;;2.65;84.34;101466.63;217694;1260;140517;-66
2023/02/15 02:57:09;;;;;;;34.80;20.00;;;;;;;2.61;83.98;101464.69;218859;1256;139720;-67
2023/02/15 03:02:26;;;;;;;31.40;18.70;;;;;;;2.58;84.31;101460.42;217659;1257;140310;-68
2023/02/15 03:07:33;;;;;;;33.00;21.70;;;;;;;2.65;84.49;101461.70;218487;1256;140223;-68
2023/02/15 03:12:40;;;;;;;34.50;20.70;;;;;;;2.68;84.53;101462.69;217857;1257;139286;-68
2023/02/15 03:17:48;;;;;;;28.70;20.00;;;;;;;2.66;84.27;101467.95;217711;1260;139368;-66
2023/02/15 03:22:58;;;;;;;31.90;19.90;;;;;;;2.62;84.64;101463.52;219472;1256;140144;-69
2023/02/15 03:28:09;;;;;;;27.90;18.60;;;;;;;2.60;84.36;101464.74;218153;1257;141479;-67
2023/02/15 03:33:15;;;;;;;26.80;16.10;;;;;;;2.58;83.95;101465.85;217730;1257;140124;-68
2023/02/15 03:38:36;;;;;;;39.00;23.50;;;;;;;2.49;84.49;101468.95;219277;1257;139158;-67
2023/02/15 03:43:58;;;;;;;31.80;21.10;;;;;;;2.54;84.62;101474.25;217817;1257;140168;-67
2023/02/15 03:49:22;;;;;;;37.40;22.40;;;;;;;2.62;84.81;101470.77;218453;1256;139559;-67
2023/02/15 03:54:42;;;;;;;38.60;21.90;;;;;;;2.70;85.10;101466.87;218023;1257;139912;-66
2023/02/15 04:05:11;;;;;;;27.30;18.00;;;;;;;2.71;84.78;101468.52;217763;1257;139778;-67
2023/02/15 04:26:28;;;;;;;25.70;19.00;;;;;;;2.65;84.77;101457.64;217690;1260;139954;-67
2023/02/15 04:31:32;;;;;;;34.10;19.80;;;;;;;2.63;84.87;101459.25;217546;1256;140274;-68
2023/02/15 04:36:40;;;;;;;30.80;17.30;;;;;;;2.67;84.88;101454.98;217703;1258;140863;-68
2023/02/15 04:41:44;;;;;;;25.70;19.30;;;;;;;2.73;85.14;101454.98;218099;1257;141614;-69
2023/02/15 04:46:49;;;;;;;23.80;15.80;;;;;;;2.83;85.34;101449.66;217905;1257;140600;-68
2023/02/15 04:51:55;;;;;;;223.40;55.60;;;;;;;2.92;85.23;101444.44;217621;1256;142239;-69
2023/02/15 04:56:59;;;;;;;49.00;20.80;;;;;;;2.95;85.01;101443.02;217709;1257;139546;-68
2023/02/15 05:02:04;;;;;;;33.40;17.60;;;;;;;3.01;84.87;101446.39;218144;1257;140620;-69
2023/02/15 05:07:08;;;;;;;24.00;16.00;;;;;;;3.02;85.01;101446.63;217616;1259;140080;-68
2023/02/15 05:12:13;;;;;;;29.10;19.00;;;;;;;3.04;85.11;101437.54;217736;1260;140028;-67
2023/02/15 05:17:16;;;;;;;23.20;16.60;;;;;;;3.04;84.61;101437.86;220188;1257;140538;-66
2023/02/15 05:22:21;;;;;;;26.20;15.50;;;;;;;3.05;84.65;101432.48;218750;1257;141793;-66
2023/02/15 05:32:49;;;;;;;23.40;15.70;;;;;;;2.98;84.06;101438.19;220623;1256;140020;-67
2023/02/15 05:37:53;;;;;;;18.10;12.30;;;;;;;2.98;84.41;101440.18;220538;1256;138657;-69
2023/02/15 05:42:57;;;;;;;27.10;15.20;;;;;;;2.97;84.04;101438.30;220403;1256;161054;-67
2023/02/15 05:48:02;;;;;;;25.10;15.30;;;;;;;2.97;83.80;101435.49;218305;1256;140391;-68
2023/02/15 05:53:06;;;;;;;28.50;18.50;;;;;;;2.95;83.56;101436.42;219153;1256;140236;-67
2023/02/15 05:58:11;;;;;;;27.50;16.70;;;;;;;2.89;83.79;101439.42;217912;1256;139876;-68
2023/02/15 06:03:16;;;;;;;32.10;20.10;;;;;;;2.92;83.94;101441.80;218833;1256;140020;-67
2023/02/15 06:08:20;;;;;;;29.90;18.70;;;;;;;2.95;83.86;101440.96;217711;1257;139686;-63
2023/02/15 06:13:24;;;;;;;36.20;21.40;;;;;;;3.02;83.92;101442.09;217539;1259;139940;-65
2023/02/15 06:18:28;;;;;;;27.60;19.00;;;;;;;3.02;83.73;101444.33;218027;1256;139508;-63
2023/02/15 06:23:32;;;;;;;35.70;19.60;;;;;;;2.96;83.55;101449.67;217887;1256;139616;-63
2023/02/15 06:28:37;;;;;;;32.00;20.10;;;;;;;2.92;83.62;101448.40;218149;1256;141423;-64
2023/02/15 06:33:40;;;;;;;33.00;20.70;;;;;;;2.93;83.51;101450.81;217413;1257;140577;-65
2023/02/15 06:38:43;;;;;;;27.00;17.70;;;;;;;2.97;83.87;101448.47;217411;1260;141981;-66
2023/02/15 06:43:47;;;;;;;33.60;21.20;;;;;;;2.97;83.31;101446.95;217503;1260;139781;-64
2023/02/15 06:48:51;;;;;;;34.70;22.00;;;;;;;2.94;83.19;101447.21;218110;1257;140211;-67
2023/02/15 06:53:56;;;;;;;31.30;20.30;;;;;;;2.95;83.41;101451.64;217535;1256;152713;-65
2023/02/15 06:59:02;;;;;;;40.40;21.80;;;;;;;2.97;83.46;101449.59;218709;1256;139843;-69
2023/02/15 07:04:06;;;;;;;26.00;17.80;;;;;;;3.10;83.78;101443.45;217373;1260;140208;-63
2023/02/15 07:09:11;;;;;;;34.50;21.80;;;;;;;3.06;83.33;101439.73;218962;1256;139274;-66
2023/02/15 07:14:15;;;;;;;40.30;23.40;;;;;;;3.08;83.52;101436.05;218594;1256;140439;-66
2023/02/15 07:19:20;;;;;;;34.80;19.80;;;;;;;3.17;83.48;101430.69;219708;1256;140468;-68
2023/02/15 07:24:24;;;;;;;34.80;20.10;;;;;;;3.24;83.23;101428.73;219511;1256;140761;-66
2023/02/15 07:29:28;;;;;;;39.70;23.90;;;;;;;3.24;82.92;101424.48;219319;1255;139622;-64
2023/02/15 07:34:33;;;;;;;37.80;21.80;;;;;;;3.19;82.89;101425.92;220517;1256;139185;-66
2023/02/15 07:39:38;;;;;;;36.20;22.20;;;;;;;3.12;82.63;101427.22;218445;1257;140126;-66
2023/02/15 07:44:42;;;;;;;41.30;24.00;;;;;;;3.08;82.73;101424.10;219273;1256;139851;-66
2023/02/15 07:49:49;;;;;;;35.80;21.90;;;;;;;3.06;82.52;101420.46;217521;1257;141964;-66
2023/02/15 07:54:53;;;;;;;28.50;19.00;;;;;;;2.96;82.64;101424.41;217671;1258;139798;-67
2023/02/15 07:59:58;;;;;;;39.80;22.30;;;;;;;2.92;82.98;101413.88;217486;1257;140348;-70
2023/02/15 08:05:02;;;;;;;35.40;21.00;;;;;;;2.98;83.11;101406.60;218227;1256;141304;-66
2023/02/15 08:10:06;;;;;;;32.60;21.10;;;;;;;3.01;83.06;101401.55;217805;1260;140519;-70
2023/02/15 08:15:10;;;;;;;38.00;22.90;;;;;;;3.01;82.98;101395.11;218922;1256;141193;-68
2023/02/15 08:20:14;;;;;;;24.00;16.00;;;;;;;3.11;83.23;101386.95;217507;1256;141681;-67
2023/02/15 08:25:18;;;;;;;31.40;19.40;;;;;;;3.18;83.12;101383.45;217731;1257;139957;-67
2023/02/15 08:30:23;;;;;;;27.80;18.70;;;;;;;3.26;83.25;101375.15;217465;1257;139861;-66
2023/02/15 08:35:28;;;;;;;39.20;21.80;;;;;;;3.32;83.02;101364.56;217482;1256;139308;-65
2023/02/15 08:40:32;;;;;;;31.30;21.10;;;;;;;3.36;82.87;101357.34;216504;1257;1453849;-66
2023/02/15 08:45:35;;;;;;;34.20;20.50;;;;;;;3.30;82.47;101357.55;217548;1256;221419;-65
2023/02/15 08:50:40;;;;;;;31.60;19.00;;;;;;;3.16;82.28;101357.77;217627;1256;139998;-65
2023/02/15 08:55:44;;;;;;;27.40;16.20;;;;;;;3.09;82.72;101353.60;218407;1256;140158;-65
2023/02/15 09:00:49;;;;;;;36.50;22.70;;;;;;;3.20;82.87;101351.80;218722;1256;139813;-65
2023/02/15 09:05:58;;;;;;;40.20;23.30;;;;;;;3.30;83.18;101345.37;218643;1256;139135;-66
2023/02/15 09:11:12;;;;;;;39.20;21.60;;;;;;;3.47;83.30;101341.61;218671;1256;139213;-63
2023/02/15 09:16:19;;;;;;;29.60;17.50;;;;;;;3.62;83.04;101343.87;218356;1256;141367;-67
2023/02/15 09:21:25;;;;;;;38.60;23.10;;;;;;;3.63;82.63;101340.04;219748;1256;140172;-68
2023/02/15 09:26:32;;;;;;;41.70;22.60;;;;;;;3.56;82.34;101337.75;220345;1256;140066;-67
2023/02/15 09:31:43;;;;;;;35.10;20.70;;;;;;;3.52;82.63;101337.83;217739;1257;233138;-66
2023/02/15 09:36:49;;;;;;;30.50;19.00;;;;;;;3.50;82.36;101335.40;217786;1257;142322;-67
2023/02/15 09:42:13;;;;;;;41.70;24.70;;;;;;;3.50;82.67;101331.15;217525;1257;140794;-66
2023/02/15 09:47:36;;;;;;;39.00;22.70;;;;;;;3.63;83.03;101327.20;217922;1256;140580;-66
2023/02/15 09:52:57;;;;;;;31.60;21.20;;;;;;;3.69;82.58;101320.29;218023;1257;140867;-66
2023/02/15 09:58:38;;;;;;;39.30;21.90;;;;;;;3.49;82.12;101316.78;217775;1256;140188;-68
2023/02/15 10:04:03;;;;;;;35.60;21.70;;;;;;;3.25;82.15;101322.14;217825;1255;139234;-66
2023/02/15 10:09:32;;;;;;;41.60;21.90;;;;;;;3.21;82.56;101318.38;217946;1257;139938;-68
2023/02/15 10:14:56;;;;;;;39.40;21.50;;;;;;;3.21;82.73;101319.06;217824;1257;140395;-66
2023/02/15 10:20:36;;;;;;;34.30;22.00;;;;;;;3.23;82.89;101310.59;217650;1257;140321;-69
2023/02/15 10:25:58;;;;;;;33.40;18.10;;;;;;;3.29;82.80;101306.45;217610;1257;139713;-68
2023/02/15 10:31:17;;;;;;;38.30;20.00;;;;;;;3.23;82.46;101303.38;217727;1259;140552;-68
2023/02/15 10:36:53;;;;;;;37.30;20.00;;;;;;;3.11;82.60;101299.09;218077;1257;140565;-66
2023/02/15 10:42:39;;;;;;;40.40;21.40;;;;;;;3.09;82.99;101294.02;217637;1258;139649;-64
2023/02/15 10:47:53;;;;;;;48.90;23.90;;;;;;;3.13;82.90;101288.73;216994;1269;140324;-66
2023/02/15 10:53:09;;;;;;;45.80;25.70;;;;;;;3.30;83.51;101286.02;217553;1257;139867;-65
2023/02/15 10:58:26;;;;;;;41.50;23.00;;;;;;;3.45;83.38;101279.10;218303;1257;139807;-65
2023/02/15 11:03:46;;;;;;;36.40;21.70;;;;;;;3.58;83.21;101273.90;217900;1256;139598;-66
2023/02/15 11:09:08;;;;;;;37.90;20.30;;;;;;;3.76;83.20;101266.11;218270;1256;140351;-66
2023/02/15 11:14:41;;;;;;;32.20;19.20;;;;;;;3.94;83.21;101260.82;218401;1257;140347;-63
2023/02/15 11:20:14;;;;;;;36.80;23.20;;;;;;;3.98;82.70;101261.33;220475;1256;139703;-65
2023/02/15 11:25:35;;;;;;;38.00;20.10;;;;;;;3.88;81.97;101250.69;218727;1257;141003;-64
2023/02/15 11:30:44;;;;;;;44.20;22.50;;;;;;;3.89;82.38;101241.46;218976;1257;139653;-68
2023/02/15 11:35:56;;;;;;;37.60;18.50;;;;;;;3.90;81.75;101231.54;217711;1257;140407;-66
2023/02/15 11:41:12;;;;;;;37.90;20.50;;;;;;;3.65;81.72;101221.86;219054;1256;139484;-67
2023/02/15 11:46:18;;;;;;;46.60;23.50;;;;;;;3.51;81.91;101207.10;218158;1256;139837;-63
2023/02/15 11:51:23;;;;;;;42.90;22.10;;;;;;;3.50;82.24;101204.23;218852;1256;140070;-67
2023/02/15 11:56:30;;;;;;;40.10;21.90;;;;;;;3.43;82.34;101196.53;217731;1259;140204;-67
2023/02/15 12:01:37;;;;;;;;;;;;;;;3.46;82.69;101197.63;218958;1256;139826;-66
2023/02/15 12:06:51;;;;;;;55.20;26.10;;;;;;;3.49;82.80;101194.29;219460;1257;125782;-67
2023/02/15 12:12:24;;;;;;;43.40;23.00;;;;;;;3.51;82.79;101197.98;217566;1259;139259;-65
2023/02/15 12:17:34;;;;;;;45.30;23.50;;;;;;;3.55;82.71;101198.79;218045;1257;139861;-67
2023/02/15 12:22:45;;;;;;;39.80;21.30;;;;;;;3.58;83.10;101193.73;217639;1257;139676;-65
2023/02/15 12:27:50;;;;;;;40.70;22.20;;;;;;;3.66;83.03;101185.63;217728;1256;139751;-65
2023/02/15 12:33:02;;;;;;;46.70;24.20;;;;;;;3.70;82.81;101176.73;218128;1259;221249;-67
2023/02/15 12:38:10;;;;;;;50.80;25.60;;;;;;;3.75;82.92;101167.27;217775;1258;139912;-68
2023/02/15 12:43:29;;;;;;;;;;;;;;;3.83;82.84;101161.22;217879;1257;140348;-66
2023/02/15 12:48:34;;;;;;;46.20;22.80;;;;;;;3.84;83.03;101149.09;218166;1257;126754;-67
2023/02/15 12:53:44;;;;;;;43.90;22.40;;;;;;;3.83;82.81;101150.05;218201;1259;139876;-67
2023/02/15 12:59:05;;;;;;;46.30;24.90;;;;;;;3.81;82.69;101140.15;217888;1259;140531;-67
2023/02/15 13:04:22;;;;;;;38.60;20.10;;;;;;;3.90;82.93;101135.09;218666;1256;139700;-67
2023/02/15 13:09:30;;;;;;;48.20;23.20;;;;;;;3.98;82.49;101126.67;219021;1259;139950;-68
2023/02/15 13:14:43;;;;;;;37.90;21.10;;;;;;;4.04;83.21;101123.66;219182;1256;139153;-68
2023/02/15 13:19:54;;;;;;;47.40;23.50;;;;;;;4.17;82.72;101125.48;218659;1257;139815;-67
2023/02/15 13:25:10;;;;;;;47.80;25.20;;;;;;;4.16;82.23;101121.17;217584;1257;140075;-65
2023/02/15 13:30:30;;;;;;;43.30;20.90;;;;;;;4.00;82.32;101114.02;220552;1256;142136;-67
2023/02/15 13:35:49;;;;;;;48.20;22.60;;;;;;;4.03;82.23;101117.89;219404;1257;140924;-66
2023/02/15 13:41:04;;;;;;;33.30;18.80;;;;;;;3.98;82.13;101112.86;219278;1256;140582;-66
2023/02/15 13:46:19;;;;;;;45.90;22.30;;;;;;;3.98;82.28;101107.36;219964;1256;139946;-66
2023/02/15 13:51:33;;;;;;;31.60;16.10;;;;;;;4.16;82.64;101108.15;219533;1257;139688;-67
2023/02/15 13:57:23;;;;;;;39.70;22.30;;;;;;;4.18;82.04;101104.98;217748;1257;140844;-68
2023/02/15 14:02:35;;;;;;;42.10;24.00;;;;;;;4.17;82.28;101104.20;218306;1256;139779;-66
2023/02/15 14:07:52;;;;;;;34.00;19.50;;;;;;;4.22;82.14;101100.06;217568;1256;139578;-67
2023/02/15 14:13:26;;;;;;;37.00;19.50;;;;;;;4.23;82.05;101095.80;217574;1256;140702;-69
2023/02/15 14:18:45;;;;;;;44.60;25.10;;;;;;;4.21;82.07;101093.53;217588;1259;140359;-70
2023/02/15 14:24:00;;;;;;;40.60;23.10;;;;;;;4.28;82.46;101090.86;217471;1257;140169;-68
2023/02/15 14:29:14;;;;;;;44.70;23.40;;;;;;;4.30;82.12;101085.19;217595;1257;140313;-67
2023/02/15 14:34:27;;;;;;;47.60;22.70;;;;;;;4.27;82.01;101079.55;217963;1257;140464;-68
2023/02/15 14:45:45;;;;;;;41.30;20.90;;;;;;;3.89;81.30;101082.48;218377;1257;140742;-69
2023/02/15 14:50:50;;;;;;;42.60;23.90;;;;;;;3.62;81.55;101080.38;217689;1257;139573;-68
2023/02/15 14:56:13;;;;;;;44.10;21.90;;;;;;;3.52;81.81;101072.27;219150;1256;139218;-69
2023/02/15 15:01:26;;;;;;;40.90;23.10;;;;;;;3.55;81.90;101070.02;218763;1256;142330;-66
2023/02/15 15:06:34;;;;;;;39.50;20.20;;;;;;;3.57;82.03;101056.39;218379;1257;140958;-66
2023/02/15 15:11:47;;;;;;;38.80;20.90;;;;;;;3.59;81.85;101053.21;218063;1256;139896;-67
2023/02/15 15:16:52;;;;;;;40.10;22.20;;;;;;;3.54;81.70;101048.63;217632;1256;139372;-69
2023/02/15 15:22:03;;;;;;;39.10;23.80;;;;;;;3.44;81.53;101044.08;219605;1257;140550;-70
2023/02/15 15:27:42;;;;;;;48.30;24.10;;;;;;;3.32;81.80;101043.54;220212;1256;139426;-68
2023/02/15 15:32:58;;;;;;;45.40;23.80;;;;;;;3.21;81.65;101039.94;219647;1256;139392;-66
2023/02/15 15:38:46;;;;;;;63.20;29.30;;;;;;;3.06;81.72;101033.67;218543;1257;141554;-67
2023/02/15 15:44:07;;;;;;;51.50;25.20;;;;;;;2.95;81.82;101024.73;219487;1256;140000;-67
2023/02/15 15:49:17;;;;;;;46.10;23.80;;;;;;;2.83;81.95;101019.88;218723;1259;139800;-69
2023/02/15 15:54:26;;;;;;;58.00;32.40;;;;;;;2.69;81.85;101017.25;218959;1259;139327;-71
2023/02/15 15:59:34;;;;;;;60.60;30.00;;;;;;;2.54;82.03;101015.70;219560;1256;140432;-70
2023/02/15 16:04:39;;;;;;;118.10;45.00;;;;;;;2.42;82.28;101014.88;217690;1259;139340;-70
2023/02/15 16:10:00;;;;;;;196.50;64.40;;;;;;;2.35;82.25;101015.28;218038;1257;141355;-68
2023/02/15 16:15:15;;;;;;;119.70;45.70;;;;;;;2.29;82.34;101010.34;218016;1259;140054;-67
2023/02/15 16:20:36;;;;;;;63.30;27.20;;;;;;;2.16;82.58;101002.63;217472;1255;140375;-67
2023/02/15 16:26:31;;;;;;;59.80;27.20;;;;;;;2.01;82.38;100994.78;217753;1257;141763;-66
2023/02/15 16:31:39;;;;;;;40.50;20.50;;;;;;;1.90;82.40;100984.27;218104;1257;141471;-67
2023/02/15 16:36:45;;;;;;;46.70;27.20;;;;;;;1.76;82.54;100983.41;217563;1257;141793;-66
2023/02/15 16:41:55;;;;;;;47.50;24.80;;;;;;;1.60;82.81;100981.56;217945;1256;161948;-68
2023/02/15 16:47:01;;;;;;;56.30;28.70;;;;;;;1.51;82.87;100977.91;217361;1261;140633;-67
2023/02/15 16:52:12;;;;;;;63.10;30.90;;;;;;;1.43;83.41;100974.52;218131;1257;150532;-66
2023/02/15 16:57:24;;;;;;;60.40;26.80;;;;;;;1.37;83.47;100975.40;218036;1262;140401;-62
2023/02/15 17:02:33;;;;;;;67.50;33.60;;;;;;;1.36;83.78;100971.80;217455;1256;140284;-65
2023/02/15 17:08:17;;;;;;;136.70;44.40;;;;;;;1.27;83.50;100970.36;217973;1262;139666;-67
2023/02/15 17:13:22;;;;;;;92.20;34.60;;;;;;;1.19;83.61;100971.84;218082;1256;139897;-66
2023/02/15 17:18:29;;;;;;;100.40;39.60;;;;;;;1.17;83.80;100965.90;220082;1259;141401;-70
2023/02/15 17:23:42;;;;;;;95.50;41.20;;;;;;;1.13;83.86;100963.40;218927;1257;142022;-69
2023/02/15 17:28:53;;;;;;;78.20;35.60;;;;;;;1.06;83.76;100961.86;218989;1256;140345;-68
2023/02/15 17:33:59;;;;;;;56.70;30.10;;;;;;;1.03;84.22;100957.12;220450;1257;140947;-68
2023/02/15 17:39:18;;;;;;;55.10;26.90;;;;;;;0.97;84.23;100949.02;218205;1257;139449;-63
2023/02/15 17:44:23;;;;;;;65.60;32.30;;;;;;;0.99;84.26;100938.34;217796;1257;139864;-63
2023/02/15 17:49:34;;;;;;;62.70;32.10;;;;;;;1.01;84.69;100930.29;219260;1257;140273;-65
2023/02/15 18:11:37;;;;;;;69.40;29.60;;;;;;;0.89;85.27;100915.02;218200;1259;141152;-65
2023/02/15 18:16:44;;;;;;;65.00;32.00;;;;;;;0.90;85.28;100915.42;218914;1256;139508;-66
2023/02/15 18:21:56;;;;;;;72.90;33.60;;;;;;;0.86;85.65;100918.46;218564;1259;140885;-67
2023/02/15 18:27:03;;;;;;;72.70;33.30;;;;;;;0.89;85.55;100917.80;218154;1257;140156;-68
2023/02/15 18:32:33;;;;;;;75.60;37.40;;;;;;;0.86;85.69;100913.58;217892;1259;139816;-65
2023/02/15 18:37:38;;;;;;;74.00;32.90;;;;;;;0.83;86.02;100903.86;218220;1259;139837;-68
2023/02/15 18:42:47;;;;;;;72.00;37.30;;;;;;;0.80;85.83;100898.40;218084;1260;140977;-68
2023/02/15 18:47:53;;;;;;;72.80;34.40;;;;;;;0.74;85.92;100895.42;217846;1261;139473;-67
2023/02/15 18:52:58;;;;;;;66.30;31.60;;;;;;;0.73;85.59;100893.48;217758;1257;139678;-68
2023/02/15 18:58:03;;;;;;;71.30;33.30;;;;;;;0.68;86.29;100891.17;217538;1261;139932;-68
2023/02/15 19:03:12;;;;;;;80.50;37.80;;;;;;;0.66;86.18;100885.61;218059;1261;140282;-69
2023/02/15 19:08:23;;;;;;;59.40;30.50;;;;;;;0.67;86.28;100881.33;217510;1262;140620;-67
2023/02/15 19:13:30;;;;;;;69.60;29.70;;;;;;;0.64;86.46;100868.65;217840;1262;142423;-68
2023/02/15 19:18:40;;;;;;;65.10;33.40;;;;;;;0.64;86.14;100861.52;219694;1259;140733;-68
2023/02/15 19:23:56;;;;;;;67.80;34.90;;;;;;;0.63;86.20;100860.25;217880;1262;140892;-68
2023/02/15 19:29:02;;;;;;;69.30;32.60;;;;;;;0.60;86.29;100858.02;220403;1258;139739;-68
2023/02/15 19:34:17;;;;;;;73.10;34.70;;;;;;;0.59;86.56;100856.26;219092;1261;141750;-68
2023/02/15 19:39:24;;;;;;;73.60;39.30;;;;;;;0.57;86.34;100853.29;219497;1262;141288;-67
2023/02/15 19:44:32;;;;;;;65.10;32.10;;;;;;;0.59;86.60;100848.75;218178;1257;140121;-66
2023/02/15 19:49:42;;;;;;;76.30;36.70;;;;;;;0.60;86.26;100838.15;218819;1259;140984;-68
2023/02/15 19:54:47;;;;;;;75.80;36.60;;;;;;;0.58;86.66;100841.33;218497;1260;139589;-68
2023/02/15 19:59:53;;;;;;;75.00;32.90;;;;;;;0.55;86.40;100835.97;217348;1263;141145;-69
2023/02/15 20:05:01;;;;;;;86.50;41.00;;;;;;;0.56;86.34;100840.11;217734;1262;140621;-67
2023/02/15 20:10:27;;;;;;;59.90;25.20;;;;;;;0.54;86.65;100834.18;218461;1258;139659;-69
2023/02/15 20:15:34;;;;;;;68.80;37.10;;;;;;;0.49;86.56;100832.14;218218;1260;139580;-68
2023/02/15 20:20:41;;;;;;;79.70;36.80;;;;;;;0.44;86.73;100828.11;217557;1257;139977;-68
2023/02/15 20:25:47;;;;;;;82.90;35.30;;;;;;;0.42;86.56;100822.64;218005;1257;139799;-68
2023/02/15 20:30:53;;;;;;;71.50;35.80;;;;;;;0.43;86.63;100813.89;217791;1257;139937;-68
2023/02/15 20:35:59;;;;;;;87.60;40.90;;;;;;;0.44;86.76;100813.08;218307;1260;140105;-68
2023/02/15 20:46:29;;;;;;;77.70;39.90;;;;;;;0.36;86.53;100808.88;217490;1258;141929;-68
2023/02/15 20:51:34;;;;;;;82.60;40.10;;;;;;;0.35;86.75;100802.69;217761;1257;140697;-68
2023/02/15 20:56:38;;;;;;;92.70;42.30;;;;;;;0.32;86.69;100802.09;218295;1257;140751;-68
2023/02/15 21:01:43;;;;;;;75.60;36.60;;;;;;;0.28;86.50;100805.63;219156;1257;140605;-67
2023/02/15 21:06:50;;;;;;;76.00;36.90;;;;;;;0.24;86.35;100804.76;219118;1257;140318;-66
2023/02/15 21:12:01;;;;;;;81.90;35.50;;;;;;;0.20;86.29;100799.55;218759;1257;139110;-65
2023/02/15 21:17:12;;;;;;;82.70;43.10;;;;;;;0.21;86.47;100792.42;218475;1257;140163;-69
2023/02/15 21:22:20;;;;;;;70.50;33.60;;;;;;;0.21;86.10;100781.23;220608;1256;139926;-68
2023/02/15 21:27:26;;;;;;;66.10;32.20;;;;;;;0.12;86.11;100780.57;220758;1257;139549;-68
2023/02/15 21:32:31;;;;;;;75.70;33.40;;;;;;;0.06;86.11;100782.13;218260;1259;140099;-69
2023/02/15 21:37:41;;;;;;;77.50;38.50;;;;;;;-0.01;85.80;100776.55;217734;1257;139483;-67
2023/02/15 21:48:10;;;;;;;80.00;41.80;;;;;;;-0.14;86.34;100769.70;217621;1258;139477;-67
2023/02/15 21:53:31;;;;;;;70.70;34.70;;;;;;;-0.09;86.76;100766.61;218078;1256;139924;-68
2023/02/15 21:58:37;;;;;;;71.70;34.10;;;;;;;-0.09;86.48;100765.23;217744;1257;140505;-66
2023/02/15 22:03:42;;;;;;;82.90;38.20;;;;;;;-0.20;86.66;100751.69;218920;1257;139544;-67
2023/02/15 22:08:47;;;;;;;82.80;40.30;;;;;;;-0.23;86.33;100740.30;217462;1257;140582;-67
2023/02/15 22:13:53;;;;;;;79.70;40.20;;;;;;;-0.24;86.71;100734.56;217723;1259;139929;-67
2023/02/15 22:18:59;;;;;;;82.40;34.80;;;;;;;-0.25;86.89;100731.94;218745;1257;139621;-68
2023/02/15 22:24:04;;;;;;;86.70;33.60;;;;;;;-0.31;87.01;100731.39;217780;1257;142148;-67
2023/02/15 22:29:15;;;;;;;98.80;46.00;;;;;;;-0.26;86.90;100726.60;217748;1258;140420;-67
2023/02/15 22:34:26;;;;;;;85.40;43.20;;;;;;;-0.21;87.35;100724.71;217748;1257;204951;-67
2023/02/15 22:39:32;;;;;;;86.50;45.00;;;;;;;-0.17;87.59;100729.95;218021;1259;139251;-66
2023/02/15 22:44:38;;;;;;;79.70;36.80;;;;;;;-0.15;87.38;100725.42;218805;1257;140414;-68
2023/02/15 22:49:43;;;;;;;93.90;42.30;;;;;;;-0.12;87.36;100723.84;218618;1257;140110;-68
2023/02/15 22:54:48;;;;;;;77.70;38.30;;;;;;;-0.06;87.37;100712.89;217568;1257;139513;-68
2023/02/15 22:59:54;;;;;;;67.30;35.80;;;;;;;-0.01;87.66;100709.54;219919;1256;140706;-67
2023/02/15 23:04:59;;;;;;;70.50;35.20;;;;;;;0.03;87.75;100704.61;219743;1257;140180;-66
2023/02/15 23:10:04;;;;;;;66.10;34.70;;;;;;;0.10;87.72;100698.21;217850;1256;139692;-66
2023/02/15 23:15:10;;;;;;;79.10;35.80;;;;;;;0.13;87.74;100693.61;220577;1257;140821;-68
2023/02/15 23:20:15;;;;;;;79.80;37.70;;;;;;;0.07;87.52;100689.81;219386;1256;140389;-68
2023/02/15 23:25:23;;;;;;;72.80;36.60;;;;;;;0.06;87.16;100687.45;218642;1256;141079;-67
2023/02/15 23:30:29;;;;;;;81.10;39.50;;;;;;;0.06;87.39;100682.39;217829;1257;140877;-67
2023/02/15 23:35:33;;;;;;;58.30;29.00;;;;;;;0.02;87.16;100679.96;219029;1256;140253;-67
2023/02/15 23:46:05;;;;;;;79.20;36.30;;;;;;;-0.06;87.60;100687.31;218731;1257;139498;-68
2023/02/15 23:51:11;;;;;;;84.40;40.20;;;;;;;-0.05;87.63;100679.04;217568;1260;139423;-67
2023/02/15 23:56:17;;;;;;;85.30;37.70;;;;;;;-0.03;87.79;100675.00;217660;1256;141339;-68
